SWA1725 EDJA-EDDP
Flight info
| Callsign | SWA1725 |
|---|---|
| Flight time | 1h 1m |
| Altitude | 9000 |
| Route | LUPOL5B LUPOL Z79 ABGAS/N0402F200 Z76 ELVAG/N0426F240 Z818 DKB/N0462F330 N869 AMOSA Z77 BAMAS/N0461F340 Z109 PIBAD/N0465F310 T954 GOXLI GOXLI1V |
| Aircraft | B738/M-SDE2E3FGHIRWXY/LB1 |
Departure
| Time | 2026-04-24 22:33 |
|---|---|
| Airport | Memmingen Allgau Airport (EDJA) |
Arrival
| Time | 2026-04-24 23:34 |
|---|---|
| Airport | Leipzig/Halle Airport (EDDP) |
| Time | Latitude | Longitude | Altitude | Speed | Heading |
|---|---|---|---|---|---|
| 2026-04-24 22:07 | 47.98896 | 10.23347 | 2067 ft | 0 kts | 25° |
| 2026-04-24 22:23 | 47.98897 | 10.23347 | 2067 ft | 0 kts | 25° |
| 2026-04-24 22:23 | 47.98899 | 10.23352 | 2067 ft | 0 kts | 66° |
| 2026-04-24 22:23 | 47.98897 | 10.23356 | 2067 ft | 0 kts | 120° |
| 2026-04-24 22:24 | 47.98895 | 10.23359 | 2067 ft | 0 kts | 147° |
| 2026-04-24 22:24 | 47.98886 | 10.23362 | 2067 ft | 3 kts | 176° |
| 2026-04-24 22:24 | 47.98859 | 10.23330 | 2068 ft | 7 kts | 238° |
| 2026-04-24 22:24 | 47.98858 | 10.23327 | 2068 ft | 0 kts | 239° |
| 2026-04-24 22:26 | 47.98849 | 10.23303 | 2069 ft | 7 kts | 242° |
| 2026-04-24 22:26 | 47.98815 | 10.23198 | 2069 ft | 14 kts | 235° |
| 2026-04-24 22:26 | 47.98797 | 10.23067 | 2071 ft | 11 kts | 258° |
| 2026-04-24 22:26 | 47.98774 | 10.22969 | 2072 ft | 7 kts | 249° |
| 2026-04-24 22:27 | 47.98758 | 10.22892 | 2072 ft | 8 kts | 252° |
| 2026-04-24 22:27 | 47.98729 | 10.22831 | 2074 ft | 6 kts | 233° |
| 2026-04-24 22:27 | 47.98711 | 10.22776 | 2075 ft | 6 kts | 248° |
| 2026-04-24 22:27 | 47.98688 | 10.22725 | 2075 ft | 4 kts | 216° |
| 2026-04-24 22:28 | 47.98656 | 10.22712 | 2075 ft | 4 kts | 189° |
| 2026-04-24 22:28 | 47.98619 | 10.22710 | 2075 ft | 6 kts | 179° |
| 2026-04-24 22:28 | 47.98560 | 10.22713 | 2075 ft | 9 kts | 174° |
| 2026-04-24 22:28 | 47.98496 | 10.22684 | 2075 ft | 10 kts | 230° |
| 2026-04-24 22:29 | 47.98418 | 10.22534 | 2076 ft | 3 kts | 186° |
| 2026-04-24 22:29 | 47.98396 | 10.22542 | 2076 ft | 2 kts | 158° |
| 2026-04-24 22:29 | 47.98370 | 10.22560 | 2077 ft | 6 kts | 144° |
| 2026-04-24 22:30 | 47.98354 | 10.22613 | 2078 ft | 4 kts | 87° |
| 2026-04-24 22:30 | 47.98365 | 10.22646 | 2078 ft | 4 kts | 60° |
| 2026-04-24 22:30 | 47.98370 | 10.22657 | 2078 ft | 0 kts | 56° |
| 2026-04-24 22:30 | 47.98370 | 10.22660 | 2078 ft | 0 kts | 59° |
| 2026-04-24 22:31 | 47.98372 | 10.22663 | 2078 ft | 0 kts | 60° |
| 2026-04-24 22:32 | 47.98372 | 10.22664 | 2078 ft | 0 kts | 54° |
| 2026-04-24 22:32 | 47.98373 | 10.22666 | 2078 ft | 0 kts | 54° |
| 2026-04-24 22:32 | 47.98376 | 10.22673 | 2078 ft | 0 kts | 55° |
| 2026-04-24 22:33 | 47.98391 | 10.22705 | 2078 ft | 14 kts | 58° |
| 2026-04-24 22:33 | 47.98568 | 10.23158 | 2074 ft | 95 kts | 59° |
| 2026-04-24 22:33 | 47.99059 | 10.24363 | 2077 ft | 174 kts | 58° |
| 2026-04-24 22:33 | 47.99754 | 10.25955 | 2890 ft | 183 kts | 57° |
| 2026-04-24 22:34 | 48.00377 | 10.27671 | 3992 ft | 200 kts | 59° |
| 2026-04-24 22:34 | 48.01080 | 10.29514 | 5026 ft | 225 kts | 57° |
| 2026-04-24 22:34 | 48.01974 | 10.31765 | 5138 ft | 272 kts | 57° |
| 2026-04-24 22:34 | 48.02953 | 10.34215 | 5114 ft | 271 kts | 57° |
| 2026-04-24 22:35 | 48.03993 | 10.36532 | 5111 ft | 267 kts | 45° |
| 2026-04-24 22:35 | 48.05534 | 10.37935 | 5129 ft | 264 kts | 16° |
| 2026-04-24 22:35 | 48.07363 | 10.38044 | 5130 ft | 262 kts | 347° |
| 2026-04-24 22:35 | 48.08964 | 10.36824 | 5132 ft | 261 kts | 319° |
| 2026-04-24 22:36 | 48.09963 | 10.34614 | 5128 ft | 262 kts | 292° |
| 2026-04-24 22:36 | 48.10489 | 10.32016 | 5140 ft | 263 kts | 288° |
| 2026-04-24 22:36 | 48.11205 | 10.29430 | 5322 ft | 282 kts | 292° |
| 2026-04-24 22:36 | 48.11950 | 10.26784 | 6813 ft | 284 kts | 292° |
| 2026-04-24 22:37 | 48.12675 | 10.24185 | 8555 ft | 273 kts | 292° |
| 2026-04-24 22:37 | 48.13366 | 10.21693 | 10207 ft | 262 kts | 292° |
| 2026-04-24 22:37 | 48.14062 | 10.19185 | 11263 ft | 274 kts | 293° |
| 2026-04-24 22:37 | 48.14821 | 10.16436 | 11140 ft | 293 kts | 293° |
| 2026-04-24 22:38 | 48.15604 | 10.13613 | 11129 ft | 288 kts | 293° |
| 2026-04-24 22:38 | 48.16356 | 10.10893 | 11138 ft | 287 kts | 292° |
| 2026-04-24 22:38 | 48.17121 | 10.08121 | 11123 ft | 287 kts | 292° |
| 2026-04-24 22:38 | 48.17883 | 10.05355 | 11135 ft | 287 kts | 292° |
| 2026-04-24 22:39 | 48.18635 | 10.02624 | 11140 ft | 287 kts | 293° |
| 2026-04-24 22:39 | 48.19395 | 9.99863 | 11143 ft | 287 kts | 293° |
| 2026-04-24 22:39 | 48.20163 | 9.97068 | 11148 ft | 290 kts | 293° |
| 2026-04-24 22:39 | 48.21269 | 9.94444 | 11751 ft | 308 kts | 315° |
| 2026-04-24 22:40 | 48.23022 | 9.92869 | 13073 ft | 301 kts | 340° |
| 2026-04-24 22:40 | 48.25026 | 9.92544 | 14340 ft | 295 kts | 3° |
| 2026-04-24 22:40 | 48.27024 | 9.93443 | 15032 ft | 310 kts | 25° |
| 2026-04-24 22:40 | 48.28958 | 9.94856 | 15903 ft | 313 kts | 19° |
| 2026-04-24 22:41 | 48.30983 | 9.95986 | 16718 ft | 317 kts | 18° |
| 2026-04-24 22:41 | 48.33074 | 9.97117 | 17423 ft | 323 kts | 18° |
| 2026-04-24 22:41 | 48.35204 | 9.98262 | 18179 ft | 327 kts | 18° |
| 2026-04-24 22:41 | 48.36618 | 9.99025 | 18656 ft | 330 kts | 18° |
| 2026-04-24 22:42 | 48.39512 | 10.00584 | 19619 ft | 335 kts | 17° |
| 2026-04-24 22:42 | 48.41680 | 10.01749 | 20102 ft | 333 kts | 17° |
| 2026-04-24 22:42 | 48.43870 | 10.02930 | 20138 ft | 337 kts | 17° |
| 2026-04-24 22:42 | 48.46084 | 10.04124 | 20139 ft | 337 kts | 17° |
| 2026-04-24 22:43 | 48.48286 | 10.05312 | 20135 ft | 337 kts | 17° |
| 2026-04-24 22:43 | 48.50481 | 10.06499 | 20139 ft | 336 kts | 17° |
| 2026-04-24 22:43 | 48.52683 | 10.07687 | 20139 ft | 336 kts | 17° |
| 2026-04-24 22:43 | 48.54880 | 10.08879 | 20138 ft | 336 kts | 17° |
| 2026-04-24 22:44 | 48.57101 | 10.10083 | 20140 ft | 336 kts | 17° |
| 2026-04-24 22:44 | 48.59288 | 10.11272 | 20142 ft | 336 kts | 17° |
| 2026-04-24 22:44 | 48.61476 | 10.12460 | 20142 ft | 336 kts | 17° |
| 2026-04-24 22:44 | 48.63659 | 10.13647 | 20140 ft | 335 kts | 17° |
| 2026-04-24 22:45 | 48.65854 | 10.14839 | 20139 ft | 336 kts | 17° |
| 2026-04-24 22:45 | 48.68045 | 10.16033 | 20138 ft | 336 kts | 17° |
| 2026-04-24 22:45 | 48.70262 | 10.17243 | 20141 ft | 336 kts | 17° |
| 2026-04-24 22:45 | 48.72449 | 10.18437 | 20140 ft | 337 kts | 17° |
| 2026-04-24 22:46 | 48.74649 | 10.19639 | 20139 ft | 337 kts | 17° |
| 2026-04-24 22:46 | 48.76850 | 10.20841 | 20141 ft | 337 kts | 17° |
| 2026-04-24 22:46 | 48.79062 | 10.22050 | 20140 ft | 337 kts | 17° |
| 2026-04-24 22:46 | 48.81265 | 10.23257 | 20141 ft | 338 kts | 17° |
| 2026-04-24 22:47 | 48.83464 | 10.24461 | 20143 ft | 337 kts | 17° |
| 2026-04-24 22:47 | 48.85662 | 10.25669 | 20140 ft | 337 kts | 17° |
| 2026-04-24 22:47 | 48.87874 | 10.26883 | 20141 ft | 337 kts | 17° |
| 2026-04-24 22:47 | 48.90064 | 10.28087 | 20141 ft | 337 kts | 17° |
| 2026-04-24 22:48 | 48.92262 | 10.29298 | 20141 ft | 337 kts | 17° |
| 2026-04-24 22:48 | 48.94466 | 10.30513 | 20140 ft | 337 kts | 16° |
| 2026-04-24 22:48 | 48.96662 | 10.31724 | 20143 ft | 338 kts | 16° |
| 2026-04-24 22:48 | 48.98854 | 10.32933 | 20143 ft | 337 kts | 16° |
| 2026-04-24 22:49 | 49.01076 | 10.34160 | 20143 ft | 338 kts | 16° |
| 2026-04-24 22:49 | 49.03269 | 10.35371 | 20143 ft | 337 kts | 16° |
| 2026-04-24 22:49 | 49.05481 | 10.36597 | 20140 ft | 337 kts | 16° |
| 2026-04-24 22:49 | 49.07672 | 10.37811 | 20138 ft | 337 kts | 16° |
| 2026-04-24 22:50 | 49.09896 | 10.39043 | 20136 ft | 338 kts | 16° |
| 2026-04-24 22:50 | 49.12078 | 10.40252 | 20135 ft | 337 kts | 16° |
| 2026-04-24 22:50 | 49.14285 | 10.41481 | 20139 ft | 337 kts | 16° |
| 2026-04-24 22:50 | 49.16474 | 10.42698 | 20136 ft | 337 kts | 16° |
| 2026-04-24 22:51 | 49.18683 | 10.43925 | 20136 ft | 337 kts | 16° |
| 2026-04-24 22:51 | 49.20867 | 10.45142 | 20137 ft | 336 kts | 16° |
| 2026-04-24 22:51 | 49.23066 | 10.46369 | 20135 ft | 336 kts | 16° |
| 2026-04-24 22:51 | 49.25254 | 10.47592 | 20140 ft | 335 kts | 16° |
| 2026-04-24 22:52 | 49.27452 | 10.48822 | 20146 ft | 336 kts | 16° |
| 2026-04-24 22:52 | 49.29648 | 10.50048 | 20148 ft | 336 kts | 16° |
| 2026-04-24 22:52 | 49.31855 | 10.51282 | 20151 ft | 337 kts | 15° |
| 2026-04-24 22:52 | 49.34037 | 10.52504 | 20142 ft | 337 kts | 16° |
| 2026-04-24 22:53 | 49.36247 | 10.53746 | 20132 ft | 337 kts | 15° |
| 2026-04-24 22:53 | 49.38435 | 10.54973 | 20139 ft | 337 kts | 15° |
| 2026-04-24 22:53 | 49.40638 | 10.56210 | 20135 ft | 338 kts | 16° |
| 2026-04-24 22:53 | 49.42842 | 10.57450 | 20077 ft | 340 kts | 15° |
| 2026-04-24 22:54 | 49.45066 | 10.58700 | 20081 ft | 338 kts | 16° |
| 2026-04-24 22:54 | 49.47259 | 10.59941 | 20125 ft | 337 kts | 15° |
| 2026-04-24 22:54 | 49.49453 | 10.61175 | 20125 ft | 342 kts | 15° |
| 2026-04-24 22:54 | 49.51808 | 10.62499 | 20149 ft | 377 kts | 16° |
| 2026-04-24 22:55 | 49.54314 | 10.63914 | 20157 ft | 388 kts | 16° |
| 2026-04-24 22:55 | 49.56817 | 10.65337 | 20140 ft | 384 kts | 17° |
| 2026-04-24 22:55 | 49.59320 | 10.66756 | 20131 ft | 382 kts | 17° |
| 2026-04-24 22:55 | 49.61816 | 10.68171 | 20131 ft | 383 kts | 17° |
| 2026-04-24 22:56 | 49.64350 | 10.69610 | 20143 ft | 389 kts | 17° |
| 2026-04-24 22:56 | 49.66869 | 10.71042 | 20137 ft | 390 kts | 17° |
| 2026-04-24 22:56 | 49.69398 | 10.72483 | 20131 ft | 389 kts | 17° |
| 2026-04-24 22:56 | 49.71926 | 10.73922 | 20136 ft | 388 kts | 17° |
| 2026-04-24 22:57 | 49.74466 | 10.75373 | 20137 ft | 389 kts | 17° |
| 2026-04-24 22:57 | 49.77002 | 10.76818 | 20141 ft | 389 kts | 17° |
| 2026-04-24 22:57 | 49.79520 | 10.78260 | 20138 ft | 388 kts | 17° |
| 2026-04-24 22:57 | 49.82063 | 10.79713 | 20132 ft | 389 kts | 17° |
| 2026-04-24 22:58 | 49.84597 | 10.81166 | 20134 ft | 388 kts | 17° |
| 2026-04-24 22:58 | 49.87128 | 10.82614 | 20138 ft | 388 kts | 17° |
| 2026-04-24 22:58 | 49.89646 | 10.84062 | 20139 ft | 389 kts | 16° |
| 2026-04-24 22:58 | 49.92180 | 10.85515 | 20136 ft | 389 kts | 17° |
| 2026-04-24 22:59 | 49.94702 | 10.86968 | 20134 ft | 389 kts | 17° |
| 2026-04-24 22:59 | 49.97230 | 10.88424 | 20133 ft | 389 kts | 17° |
| 2026-04-24 22:59 | 50.02295 | 10.91348 | 20125 ft | 389 kts | 16° |
| 2026-04-24 23:00 | 50.04872 | 10.92834 | 20144 ft | 406 kts | 16° |
| 2026-04-24 23:00 | 50.07599 | 10.94406 | 20168 ft | 427 kts | 17° |
| 2026-04-24 23:00 | 50.10364 | 10.96015 | 20109 ft | 422 kts | 17° |
| 2026-04-24 23:00 | 50.13100 | 10.97604 | 20121 ft | 418 kts | 17° |
| 2026-04-24 23:01 | 50.15792 | 10.99170 | 20127 ft | 417 kts | 17° |
| 2026-04-24 23:01 | 50.18545 | 11.00770 | 20123 ft | 418 kts | 17° |
| 2026-04-24 23:01 | 50.21233 | 11.02333 | 20125 ft | 419 kts | 17° |
| 2026-04-24 23:01 | 50.23972 | 11.03930 | 20127 ft | 419 kts | 17° |
| 2026-04-24 23:02 | 50.26695 | 11.05520 | 20115 ft | 419 kts | 16° |
| 2026-04-24 23:02 | 50.29423 | 11.07114 | 20117 ft | 419 kts | 16° |
| 2026-04-24 23:02 | 50.32161 | 11.08715 | 20115 ft | 419 kts | 16° |
| 2026-04-24 23:02 | 50.34893 | 11.10314 | 20111 ft | 419 kts | 16° |
| 2026-04-24 23:03 | 50.37604 | 11.11896 | 20112 ft | 418 kts | 14° |
| 2026-04-24 23:03 | 50.40324 | 11.13501 | 20106 ft | 418 kts | 16° |
| 2026-04-24 23:03 | 50.43023 | 11.15088 | 20109 ft | 417 kts | 16° |
| 2026-04-24 23:03 | 50.45734 | 11.16684 | 20099 ft | 417 kts | 16° |
| 2026-04-24 23:04 | 50.48453 | 11.18289 | 20105 ft | 417 kts | 16° |
| 2026-04-24 23:04 | 50.51149 | 11.19879 | 20107 ft | 417 kts | 16° |
| 2026-04-24 23:04 | 50.53865 | 11.21481 | 20106 ft | 418 kts | 16° |
| 2026-04-24 23:04 | 50.56585 | 11.23091 | 20100 ft | 418 kts | 16° |
| 2026-04-24 23:05 | 50.59293 | 11.24695 | 20107 ft | 418 kts | 16° |
| 2026-04-24 23:05 | 50.62026 | 11.26316 | 20106 ft | 418 kts | 16° |
| 2026-04-24 23:05 | 50.64737 | 11.27927 | 20103 ft | 418 kts | 16° |
| 2026-04-24 23:05 | 50.67424 | 11.29523 | 20096 ft | 417 kts | 16° |
| 2026-04-24 23:06 | 50.70142 | 11.31139 | 20104 ft | 418 kts | 16° |
| 2026-04-24 23:06 | 50.72848 | 11.32754 | 20108 ft | 418 kts | 16° |
| 2026-04-24 23:06 | 50.75561 | 11.34372 | 20110 ft | 417 kts | 16° |
| 2026-04-24 23:06 | 50.78271 | 11.35990 | 20104 ft | 417 kts | 16° |
| 2026-04-24 23:07 | 50.80975 | 11.37608 | 20108 ft | 417 kts | 16° |
| 2026-04-24 23:07 | 50.83702 | 11.39243 | 20110 ft | 417 kts | 16° |
| 2026-04-24 23:07 | 50.86402 | 11.40859 | 20115 ft | 422 kts | 16° |
| 2026-04-24 23:07 | 50.89161 | 11.42517 | 20106 ft | 426 kts | 16° |
| 2026-04-24 23:08 | 50.91908 | 11.44171 | 20108 ft | 419 kts | 16° |
| 2026-04-24 23:08 | 50.94609 | 11.45796 | 20100 ft | 416 kts | 16° |
| 2026-04-24 23:08 | 50.97319 | 11.47428 | 20098 ft | 416 kts | 16° |
| 2026-04-24 23:08 | 50.99995 | 11.49044 | 20099 ft | 416 kts | 16° |
| 2026-04-24 23:09 | 51.02708 | 11.50682 | 20100 ft | 416 kts | 16° |
| 2026-04-24 23:09 | 51.05424 | 11.52325 | 20098 ft | 417 kts | 16° |
| 2026-04-24 23:09 | 51.08131 | 11.53968 | 20100 ft | 417 kts | 17° |
| 2026-04-24 23:09 | 51.10648 | 11.56222 | 20085 ft | 426 kts | 34° |
| 2026-04-24 23:10 | 51.12694 | 11.59689 | 19960 ft | 432 kts | 50° |
| 2026-04-24 23:10 | 51.14062 | 11.63823 | 19190 ft | 428 kts | 65° |
| 2026-04-24 23:10 | 51.15274 | 11.68103 | 17837 ft | 429 kts | 60° |
| 2026-04-24 23:10 | 51.16615 | 11.72304 | 16319 ft | 433 kts | 59° |
| 2026-04-24 23:11 | 51.17989 | 11.76526 | 15069 ft | 428 kts | 59° |
| 2026-04-24 23:11 | 51.19313 | 11.80603 | 14239 ft | 414 kts | 59° |
| 2026-04-24 23:11 | 51.20608 | 11.84590 | 12839 ft | 403 kts | 59° |
| 2026-04-24 23:11 | 51.21880 | 11.88497 | 11184 ft | 398 kts | 59° |
| 2026-04-24 23:12 | 51.22973 | 11.92503 | 11108 ft | 400 kts | 72° |
| 2026-04-24 23:12 | 51.23322 | 11.96879 | 11103 ft | 385 kts | 83° |
| 2026-04-24 23:12 | 51.23517 | 12.00878 | 11086 ft | 354 kts | 82° |
| 2026-04-24 23:12 | 51.23711 | 12.04828 | 11103 ft | 359 kts | 82° |
| 2026-04-24 23:13 | 51.23901 | 12.08761 | 11101 ft | 362 kts | 82° |
| 2026-04-24 23:13 | 51.24094 | 12.12771 | 11096 ft | 362 kts | 82° |
| 2026-04-24 23:13 | 51.24284 | 12.16758 | 11102 ft | 362 kts | 82° |
| 2026-04-24 23:13 | 51.24473 | 12.20759 | 11077 ft | 353 kts | 82° |
| 2026-04-24 23:14 | 51.24644 | 12.24482 | 10116 ft | 338 kts | 81° |
| 2026-04-24 23:14 | 51.24822 | 12.28198 | 8524 ft | 346 kts | 81° |
| 2026-04-24 23:14 | 51.24994 | 12.31942 | 8115 ft | 339 kts | 82° |
| 2026-04-24 23:14 | 51.25158 | 12.35575 | 7887 ft | 311 kts | 81° |
| 2026-04-24 23:15 | 51.25612 | 12.38692 | 7660 ft | 271 kts | 62° |
| 2026-04-24 23:15 | 51.26289 | 12.41297 | 7449 ft | 240 kts | 60° |
| 2026-04-24 23:15 | 51.26919 | 12.43651 | 7170 ft | 220 kts | 60° |
| 2026-04-24 23:15 | 51.27497 | 12.45790 | 6896 ft | 205 kts | 59° |
| 2026-04-24 23:16 | 51.28041 | 12.47803 | 6625 ft | 193 kts | 59° |
| 2026-04-24 23:16 | 51.28561 | 12.49727 | 6361 ft | 188 kts | 59° |
| 2026-04-24 23:16 | 51.29103 | 12.51714 | 6143 ft | 201 kts | 59° |
| 2026-04-24 23:16 | 51.29699 | 12.53926 | 6137 ft | 226 kts | 60° |
| 2026-04-24 23:17 | 51.30327 | 12.56248 | 5924 ft | 225 kts | 60° |
| 2026-04-24 23:17 | 51.30812 | 12.58592 | 5667 ft | 227 kts | 74° |
| 2026-04-24 23:17 | 51.30830 | 12.61123 | 5412 ft | 232 kts | 92° |
| 2026-04-24 23:17 | 51.30609 | 12.63680 | 5167 ft | 232 kts | 91° |
| 2026-04-24 23:18 | 51.30391 | 12.66255 | 4915 ft | 235 kts | 99° |
| 2026-04-24 23:18 | 51.29846 | 12.68683 | 4703 ft | 238 kts | 119° |
| 2026-04-24 23:18 | 51.28711 | 12.70649 | 4375 ft | 242 kts | 134° |
| 2026-04-24 23:18 | 51.27754 | 12.72846 | 3536 ft | 246 kts | 118° |
| 2026-04-24 23:19 | 51.26897 | 12.75085 | 3238 ft | 233 kts | 122° |
| 2026-04-24 23:19 | 51.25955 | 12.77188 | 3443 ft | 235 kts | 125° |
| 2026-04-24 23:19 | 51.25049 | 12.79354 | 3705 ft | 236 kts | 114° |
| 2026-04-24 23:19 | 51.24644 | 12.81850 | 4012 ft | 233 kts | 89° |
| 2026-04-24 23:20 | 51.24797 | 12.84425 | 3501 ft | 233 kts | 72° |
| 2026-04-24 23:20 | 51.25413 | 12.86710 | 3021 ft | 211 kts | 52° |
| 2026-04-24 23:20 | 51.26226 | 12.88407 | 3063 ft | 176 kts | 38° |
| 2026-04-24 23:20 | 51.27108 | 12.89519 | 3043 ft | 150 kts | 26° |
| 2026-04-24 23:21 | 51.27974 | 12.90504 | 2993 ft | 156 kts | 33° |
| 2026-04-24 23:21 | 51.28849 | 12.91523 | 2964 ft | 156 kts | 29° |
| 2026-04-24 23:21 | 51.29748 | 12.92504 | 2936 ft | 155 kts | 27° |
| 2026-04-24 23:21 | 51.30668 | 12.93358 | 2907 ft | 153 kts | 21° |
| 2026-04-24 23:22 | 51.31612 | 12.94131 | 2893 ft | 154 kts | 22° |
| 2026-04-24 23:22 | 51.32561 | 12.94965 | 2888 ft | 153 kts | 14° |
| 2026-04-24 23:22 | 51.33541 | 12.94918 | 2855 ft | 143 kts | 322° |
| 2026-04-24 23:22 | 51.33949 | 12.93555 | 2771 ft | 146 kts | 264° |
| 2026-04-24 23:23 | 51.33718 | 12.91966 | 2679 ft | 145 kts | 265° |
| 2026-04-24 23:23 | 51.33512 | 12.90396 | 2613 ft | 148 kts | 253° |
| 2026-04-24 23:23 | 51.33062 | 12.88887 | 2508 ft | 149 kts | 250° |
| 2026-04-24 23:23 | 51.32665 | 12.87365 | 2435 ft | 147 kts | 256° |
| 2026-04-24 23:24 | 51.32310 | 12.85789 | 2373 ft | 160 kts | 256° |
| 2026-04-24 23:24 | 51.31971 | 12.84093 | 2383 ft | 161 kts | 261° |
| 2026-04-24 23:24 | 51.31819 | 12.82361 | 2435 ft | 157 kts | 272° |
| 2026-04-24 23:24 | 51.31821 | 12.80607 | 2501 ft | 156 kts | 275° |
| 2026-04-24 23:25 | 51.31837 | 12.78879 | 2533 ft | 158 kts | 273° |
| 2026-04-24 23:25 | 51.31792 | 12.77132 | 2541 ft | 158 kts | 270° |
| 2026-04-24 23:25 | 51.31716 | 12.75383 | 2537 ft | 157 kts | 272° |
| 2026-04-24 23:25 | 51.31722 | 12.73639 | 2512 ft | 157 kts | 279° |
| 2026-04-24 23:26 | 51.31988 | 12.71965 | 2364 ft | 155 kts | 291° |
| 2026-04-24 23:26 | 51.32378 | 12.70369 | 2352 ft | 153 kts | 297° |
| 2026-04-24 23:26 | 51.32862 | 12.68856 | 2578 ft | 152 kts | 301° |
| 2026-04-24 23:26 | 51.33396 | 12.67406 | 2820 ft | 153 kts | 304° |
| 2026-04-24 23:27 | 51.34011 | 12.66025 | 2954 ft | 154 kts | 309° |
| 2026-04-24 23:27 | 51.34722 | 12.64726 | 2912 ft | 154 kts | 314° |
| 2026-04-24 23:27 | 51.35493 | 12.63540 | 2764 ft | 154 kts | 318° |
| 2026-04-24 23:27 | 51.36286 | 12.62384 | 2607 ft | 153 kts | 317° |
| 2026-04-24 23:28 | 51.37018 | 12.61168 | 2445 ft | 153 kts | 309° |
| 2026-04-24 23:28 | 51.37610 | 12.59734 | 2289 ft | 154 kts | 303° |
| 2026-04-24 23:28 | 51.38209 | 12.58317 | 2145 ft | 154 kts | 311° |
| 2026-04-24 23:28 | 51.38931 | 12.57049 | 2007 ft | 154 kts | 314° |
| 2026-04-24 23:29 | 51.39548 | 12.55641 | 1885 ft | 156 kts | 298° |
| 2026-04-24 23:29 | 51.39864 | 12.53979 | 1769 ft | 159 kts | 278° |
| 2026-04-24 23:29 | 51.40021 | 12.52248 | 1656 ft | 158 kts | 291° |
| 2026-04-24 23:29 | 51.40313 | 12.50565 | 1463 ft | 159 kts | 290° |
| 2026-04-24 23:30 | 51.40654 | 12.48980 | 1209 ft | 144 kts | 296° |
| 2026-04-24 23:30 | 51.41093 | 12.47612 | 966 ft | 132 kts | 304° |
| 2026-04-24 23:30 | 51.41603 | 12.46381 | 856 ft | 133 kts | 306° |
| 2026-04-24 23:30 | 51.42140 | 12.45162 | 898 ft | 135 kts | 303° |
| 2026-04-24 23:31 | 51.42436 | 12.43739 | 903 ft | 139 kts | 276° |
| 2026-04-24 23:31 | 51.42470 | 12.42193 | 987 ft | 136 kts | 277° |
| 2026-04-24 23:31 | 51.42612 | 12.40666 | 1274 ft | 144 kts | 288° |
| 2026-04-24 23:31 | 51.42932 | 12.39156 | 1520 ft | 146 kts | 298° |
| 2026-04-24 23:32 | 51.43338 | 12.37640 | 1521 ft | 146 kts | 292° |
| 2026-04-24 23:32 | 51.43559 | 12.36063 | 1466 ft | 147 kts | 282° |
| 2026-04-24 23:32 | 51.43637 | 12.34421 | 1336 ft | 149 kts | 275° |
| 2026-04-24 23:32 | 51.43607 | 12.32764 | 1266 ft | 149 kts | 271° |
| 2026-04-24 23:33 | 51.43538 | 12.31081 | 1169 ft | 151 kts | 270° |
| 2026-04-24 23:33 | 51.43501 | 12.29980 | 1002 ft | 152 kts | 271° |
| 2026-04-24 23:33 | 51.43398 | 12.27731 | 754 ft | 150 kts | 267° |
| 2026-04-24 23:33 | 51.43321 | 12.26018 | 476 ft | 152 kts | 268° |
| 2026-04-24 23:34 | 51.43251 | 12.24355 | 428 ft | 146 kts | 268° |
| 2026-04-24 23:34 | 51.43201 | 12.22791 | 416 ft | 143 kts | 265° |
| 2026-04-24 23:34 | 51.43152 | 12.21049 | 407 ft | 154 kts | 271° |
| 2026-04-24 23:34 | 51.43202 | 12.19947 | 397 ft | 37 kts | 311° |
| 2026-04-24 23:35 | 51.43208 | 12.19926 | 397 ft | 0 kts | 324° |
| 2026-04-24 23:35 | 51.43212 | 12.19922 | 397 ft | 3 kts | 330° |
| 2026-04-24 23:35 | 51.43284 | 12.19955 | 398 ft | 23 kts | 63° |
| 2026-04-24 23:35 | 51.43160 | 12.20208 | 399 ft | 32 kts | 163° |
| 2026-04-24 23:36 | 51.43002 | 12.20381 | 400 ft | 26 kts | 120° |
| 2026-04-24 23:36 | 51.43019 | 12.20588 | 402 ft | 17 kts | 46° |
| 2026-04-24 23:36 | 51.43035 | 12.20748 | 402 ft | 14 kts | 84° |
| 2026-04-24 23:36 | 51.43061 | 12.21003 | 406 ft | 31 kts | 79° |
| 2026-04-24 23:37 | 51.43107 | 12.21407 | 411 ft | 43 kts | 91° |
| 2026-04-24 23:37 | 51.43125 | 12.21873 | 416 ft | 41 kts | 89° |
| 2026-04-24 23:37 | 51.43177 | 12.22756 | 416 ft | 38 kts | 83° |
| 2026-04-24 23:38 | 51.43197 | 12.23183 | 416 ft | 38 kts | 85° |
| 2026-04-24 23:38 | 51.43218 | 12.23605 | 419 ft | 37 kts | 85° |
| 2026-04-24 23:38 | 51.43234 | 12.24008 | 424 ft | 35 kts | 86° |
| 2026-04-24 23:38 | 51.43239 | 12.24392 | 428 ft | 33 kts | 97° |
| 2026-04-24 23:39 | 51.43164 | 12.24726 | 432 ft | 31 kts | 115° |
| 2026-04-24 23:39 | 51.43115 | 12.24920 | 434 ft | 0 kts | 115° |
| 2026-04-24 23:40 | 51.43111 | 12.24935 | 434 ft | 4 kts | 116° |
| 2026-04-24 23:40 | 51.43063 | 12.25091 | 436 ft | 28 kts | 116° |
| 2026-04-24 23:40 | 51.42990 | 12.25275 | 436 ft | 13 kts | 158° |
| 2026-04-24 23:41 | 51.42982 | 12.25118 | 436 ft | 24 kts | 277° |
| 2026-04-24 23:41 | 51.42959 | 12.24887 | 434 ft | 19 kts | 255° |
| 2026-04-24 23:41 | 51.42969 | 12.24693 | 433 ft | 13 kts | 255° |
| 2026-04-24 23:41 | 51.42953 | 12.24514 | 430 ft | 19 kts | 268° |
| 2026-04-24 23:42 | 51.42936 | 12.24274 | 427 ft | 23 kts | 265° |
| 2026-04-24 23:42 | 51.42925 | 12.23961 | 424 ft | 31 kts | 269° |
| 2026-04-24 23:42 | 51.42908 | 12.23569 | 421 ft | 31 kts | 263° |
| 2026-04-24 23:42 | 51.42892 | 12.23305 | 421 ft | 28 kts | 269° |
| 2026-04-24 23:43 | 51.42876 | 12.22924 | 418 ft | 40 kts | 266° |
| 2026-04-24 23:43 | 51.42853 | 12.22417 | 419 ft | 50 kts | 265° |
| 2026-04-24 23:43 | 51.42826 | 12.21799 | 415 ft | 60 kts | 266° |
| 2026-04-24 23:43 | 51.42792 | 12.21260 | 411 ft | 33 kts | 243° |
| 2026-04-24 23:44 | 51.42658 | 12.21102 | 408 ft | 15 kts | 196° |
| 2026-04-24 23:44 | 51.42600 | 12.21105 | 409 ft | 0 kts | 163° |
| 2026-04-24 23:44 | 51.42570 | 12.21116 | 410 ft | 10 kts | 172° |
| 2026-04-24 23:44 | 51.42492 | 12.21109 | 411 ft | 12 kts | 197° |
| 2026-04-24 23:45 | 51.42358 | 12.21051 | 412 ft | 27 kts | 196° |
| 2026-04-24 23:45 | 51.42149 | 12.20956 | 413 ft | 31 kts | 197° |
| 2026-04-24 23:45 | 51.42073 | 12.20924 | 414 ft | 0 kts | 188° |
| 2026-04-24 23:45 | 51.42067 | 12.20922 | 414 ft | 0 kts | 190° |
| 2026-04-24 23:46 | 51.42053 | 12.20918 | 414 ft | 5 kts | 192° |
| 2026-04-24 23:46 | 51.42015 | 12.20943 | 415 ft | 7 kts | 132° |
| 2026-04-24 23:46 | 51.41984 | 12.21013 | 416 ft | 7 kts | 109° |
| 2026-04-24 23:46 | 51.41967 | 12.21110 | 416 ft | 11 kts | 107° |
| 2026-04-24 23:47 | 51.41938 | 12.21253 | 417 ft | 15 kts | 107° |
| 2026-04-24 23:47 | 51.41908 | 12.21423 | 419 ft | 15 kts | 104° |
| 2026-04-24 23:47 | 51.41882 | 12.21580 | 423 ft | 12 kts | 106° |
| 2026-04-24 23:47 | 51.41886 | 12.21616 | 424 ft | 2 kts | 38° |
| 2026-04-24 23:48 | 51.41905 | 12.21639 | 424 ft | 6 kts | 31° |
| 2026-04-24 23:48 | 51.41951 | 12.21668 | 423 ft | 0 kts | 16° |